createdAt,value
2018-01-25T00:00:17.423Z,15.83
2018-01-25T00:02:44.222Z,15.43
2018-01-25T00:05:10.994Z,15.60
2018-01-25T00:07:37.763Z,14.80
2018-01-25T00:10:04.558Z,15.23
2018-01-25T00:12:31.314Z,14.33
2018-01-25T00:14:58.127Z,14.07
2018-01-25T00:17:24.922Z,15.33
2018-01-25T00:19:51.697Z,14.33
2018-01-25T00:22:19.181Z,15.77
2018-01-25T00:24:45.938Z,14.37
2018-01-25T00:27:12.698Z,13.60
2018-01-25T00:29:39.473Z,15.23
2018-01-25T00:32:06.219Z,13.80
2018-01-25T00:34:32.994Z,14.10
2018-01-25T00:37:00.012Z,15.37
2018-01-25T00:39:26.851Z,14.33
2018-01-25T00:41:53.631Z,14.17
2018-01-25T00:44:20.396Z,14.33
2018-01-25T00:46:47.153Z,15.73
2018-01-25T00:49:14.102Z,13.80
2018-01-25T00:51:40.858Z,14.80
2018-01-25T00:54:07.620Z,14.03
2018-01-25T00:56:34.848Z,14.17
2018-01-25T00:59:05.365Z,13.50
2018-01-25T01:01:32.150Z,14.33
2018-01-25T01:03:59.635Z,13.83
2018-01-25T01:06:26.373Z,14.40
2018-01-25T01:08:53.103Z,14.57
2018-01-25T01:11:19.875Z,13.93
2018-01-25T01:13:47.101Z,13.47
2018-01-25T01:16:13.850Z,14.17
2018-01-25T01:18:40.693Z,15.00
2018-01-25T01:21:07.481Z,14.80
2018-01-25T01:23:34.233Z,14.87
2018-01-25T01:26:01.000Z,16.50
2018-01-25T01:28:27.745Z,15.90
2018-01-25T01:30:54.666Z,15.27
2018-01-25T01:33:21.425Z,15.97
2018-01-25T01:35:48.209Z,14.87
2018-01-25T01:38:14.970Z,15.03
2018-01-25T01:40:41.768Z,16.53
2018-01-25T01:43:08.537Z,15.73
2018-01-25T01:45:35.291Z,15.70
2018-01-25T01:48:02.717Z,14.23
2018-01-25T01:50:29.499Z,14.47
2018-01-25T01:52:56.250Z,15.60
2018-01-25T01:55:23.069Z,13.77
2018-01-25T01:57:49.877Z,14.80
2018-01-25T02:00:16.650Z,14.23
2018-01-25T02:02:43.417Z,14.60
2018-01-25T02:05:10.274Z,14.33
2018-01-25T02:07:37.152Z,16.13
2018-01-25T02:10:03.953Z,14.63
2018-01-25T02:12:30.866Z,14.83
2018-01-25T02:14:57.777Z,14.50
2018-01-25T02:17:25.009Z,13.77
2018-01-25T02:19:51.813Z,14.60
2018-01-25T02:22:18.606Z,13.63
2018-01-25T02:24:45.586Z,15.57
2018-01-25T02:27:12.438Z,15.30
2018-01-25T02:29:39.315Z,14.27
2018-01-25T02:32:06.356Z,15.10
2018-01-25T02:34:33.204Z,15.87
2018-01-25T02:37:00.198Z,15.57
2018-01-25T02:39:27.071Z,15.10
2018-01-25T02:41:53.979Z,16.13
2018-01-25T02:44:20.869Z,15.30
2018-01-25T02:46:47.783Z,16.97
2018-01-25T02:49:14.624Z,16.20
2018-01-25T02:51:41.517Z,15.90
2018-01-25T02:54:08.358Z,14.20
2018-01-25T02:56:35.252Z,17.20
2018-01-25T02:59:02.152Z,15.93
2018-01-25T03:01:28.949Z,16.23
2018-01-25T03:03:55.733Z,16.60
2018-01-25T03:06:22.525Z,15.90
2018-01-25T03:08:49.291Z,14.87
2018-01-25T03:11:16.051Z,15.10
2018-01-25T03:13:42.820Z,14.60
2018-01-25T03:16:09.574Z,15.43
2018-01-25T03:18:36.317Z,15.43
2018-01-25T03:21:03.117Z,15.30
2018-01-25T03:23:29.861Z,14.90
2018-01-25T03:25:56.638Z,14.87
2018-01-25T03:28:23.383Z,14.20
2018-01-25T03:30:50.174Z,14.87
2018-01-25T03:33:16.965Z,15.77
2018-01-25T03:35:43.719Z,14.73
2018-01-25T03:38:10.469Z,16.27
2018-01-25T03:40:37.282Z,15.00
2018-01-25T03:43:04.030Z,14.27
2018-01-25T03:45:31.485Z,14.77
2018-01-25T03:47:58.266Z,14.87
2018-01-25T03:50:25.025Z,14.33
2018-01-25T03:52:51.785Z,14.77
2018-01-25T03:55:18.518Z,15.93
2018-01-25T03:57:45.401Z,16.50
2018-01-25T04:00:12.160Z,15.07
2018-01-25T04:02:38.948Z,14.40
2018-01-25T04:05:05.713Z,14.80
2018-01-25T04:07:32.670Z,14.87
2018-01-25T04:09:59.454Z,15.00
2018-01-25T04:12:26.246Z,14.40
2018-01-25T04:14:53.024Z,13.93
2018-01-25T04:17:19.807Z,16.37
2018-01-25T04:19:47.108Z,14.13
2018-01-25T04:22:13.871Z,15.13
2018-01-25T04:24:40.621Z,14.03
2018-01-25T04:27:07.408Z,14.50
2018-01-25T04:29:34.213Z,14.33
2018-01-25T04:32:00.985Z,14.43
2018-01-25T04:34:27.823Z,13.97
2018-01-25T04:36:54.562Z,13.57
2018-01-25T04:39:21.305Z,15.37
2018-01-25T04:41:48.129Z,16.10
2018-01-25T04:44:14.963Z,15.80
2018-01-25T04:46:41.744Z,14.40
2018-01-25T04:49:08.522Z,15.37
2018-01-25T04:51:35.265Z,14.73
2018-01-25T04:54:02.058Z,14.53
2018-01-25T04:56:28.841Z,15.27
2018-01-25T04:58:55.798Z,14.50
2018-01-25T05:01:22.633Z,14.20
2018-01-25T05:03:49.383Z,15.30
2018-01-25T05:06:16.166Z,14.27
2018-01-25T05:08:42.939Z,15.07
2018-01-25T05:11:09.719Z,15.43
2018-01-25T05:13:36.469Z,14.53
2018-01-25T05:16:03.255Z,15.13
2018-01-25T05:18:30.185Z,14.10
2018-01-25T05:20:57.011Z,14.93
2018-01-25T05:23:23.775Z,14.70
2018-01-25T05:25:50.599Z,15.07
2018-01-25T05:28:17.357Z,14.57
2018-01-25T05:30:44.121Z,15.20
2018-01-25T05:33:10.925Z,13.93
2018-01-25T05:35:37.724Z,13.83
2018-01-25T05:38:04.477Z,14.13
2018-01-25T05:40:31.285Z,15.70
2018-01-25T05:42:58.056Z,13.80
2018-01-25T05:45:24.821Z,15.77
2018-01-25T05:47:51.607Z,13.90
2018-01-25T05:50:18.352Z,13.53
2018-01-25T05:52:45.117Z,14.67
2018-01-25T05:55:11.862Z,13.53
2018-01-25T05:57:38.625Z,14.80
2018-01-25T06:00:05.389Z,21.20
2018-01-25T06:02:32.162Z,15.83
2018-01-25T06:04:58.951Z,16.03
2018-01-25T06:07:25.689Z,14.77
2018-01-25T06:09:52.438Z,15.57
2018-01-25T06:12:19.218Z,17.60
2018-01-25T06:14:45.991Z,15.60
2018-01-25T06:17:12.715Z,15.33
2018-01-25T06:19:39.481Z,16.77
2018-01-25T06:22:06.244Z,15.47
2018-01-25T06:24:33.004Z,15.70
2018-01-25T06:26:59.758Z,15.33
2018-01-25T06:29:26.518Z,13.17
2018-01-25T06:31:53.433Z,14.93
2018-01-25T06:34:20.558Z,16.07
2018-01-25T06:36:47.285Z,15.30
2018-01-25T06:39:14.074Z,16.27
2018-01-25T06:41:40.865Z,14.97
2018-01-25T06:44:07.651Z,15.37
2018-01-25T06:46:34.525Z,16.87
2018-01-25T06:49:01.369Z,16.33
2018-01-25T06:51:28.170Z,15.27
2018-01-25T06:53:55.154Z,15.73
2018-01-25T06:56:22.107Z,16.47
2018-01-25T06:58:49.117Z,14.13
2018-01-25T07:01:16.121Z,15.90
2018-01-25T07:03:43.022Z,15.60
2018-01-25T07:06:09.935Z,16.10
2018-01-25T07:08:37.240Z,15.57
2018-01-25T07:11:04.155Z,16.83
2018-01-25T07:13:31.081Z,14.13
2018-01-25T07:15:57.950Z,16.40
2018-01-25T07:18:24.719Z,15.83
2018-01-25T07:20:51.569Z,17.27
2018-01-25T07:23:18.452Z,15.47
2018-01-25T07:25:45.335Z,16.40
2018-01-25T07:28:12.273Z,15.83
2018-01-25T07:30:39.248Z,15.47
2018-01-25T07:33:06.336Z,15.40
2018-01-25T07:35:33.285Z,15.90
2018-01-25T07:38:00.393Z,14.53
2018-01-25T07:40:27.255Z,16.60
2018-01-25T07:42:54.214Z,16.00
2018-01-25T07:45:21.112Z,15.40
2018-01-25T07:47:48.062Z,14.33
2018-01-25T07:50:15.174Z,14.53
2018-01-25T07:52:42.299Z,15.07
2018-01-25T07:55:09.229Z,14.33
2018-01-25T07:57:41.683Z,14.37
2018-01-25T08:00:08.510Z,13.67
2018-01-25T08:02:35.272Z,14.50
2018-01-25T08:05:02.052Z,15.50
2018-01-25T08:07:28.811Z,14.63
2018-01-25T08:09:57.298Z,14.47
2018-01-25T08:12:24.045Z,13.73
2018-01-25T08:14:50.874Z,13.93
2018-01-25T08:17:17.646Z,14.37
2018-01-25T08:19:44.926Z,13.77
2018-01-25T08:22:11.775Z,14.80
2018-01-25T08:24:38.529Z,15.20
2018-01-25T08:27:05.301Z,13.47
2018-01-25T08:29:32.053Z,14.33
2018-01-25T08:31:59.691Z,13.03
2018-01-25T08:34:26.508Z,12.93
2018-01-25T08:36:53.260Z,13.07
2018-01-25T08:39:20.027Z,12.37
2018-01-25T08:41:47.666Z,14.37
2018-01-25T08:44:14.432Z,12.37
2018-01-25T08:46:41.191Z,13.00
2018-01-25T08:49:07.987Z,12.93
2018-01-25T08:51:35.301Z,11.30
2018-01-25T08:54:02.124Z,12.50
2018-01-25T08:56:28.858Z,12.43
2018-01-25T08:59:02.131Z,13.00
2018-01-25T09:01:29.663Z,13.00
2018-01-25T09:03:56.519Z,12.17
2018-01-25T09:06:23.430Z,14.60
2018-01-25T09:08:50.302Z,13.57
2018-01-25T09:11:17.061Z,13.13
2018-01-25T09:13:43.842Z,14.07
2018-01-25T09:16:10.617Z,13.43
2018-01-25T09:18:38.203Z,13.97
2018-01-25T09:21:04.978Z,13.27
2018-01-25T09:23:31.774Z,12.47
2018-01-25T09:25:58.537Z,12.77
2018-01-25T09:28:25.304Z,14.03
2018-01-25T09:30:52.085Z,14.30
2018-01-25T09:33:18.908Z,14.10
2018-01-25T09:35:46.360Z,14.40
2018-01-25T09:38:13.747Z,13.07
2018-01-25T09:40:40.493Z,12.70
2018-01-25T09:43:07.252Z,11.97
2018-01-25T09:45:34.241Z,12.87
2018-01-25T09:48:01.293Z,13.20
2018-01-25T09:50:28.053Z,13.23
2018-01-25T09:52:54.878Z,13.20
2018-01-25T09:55:21.770Z,12.77
2018-01-25T09:57:48.525Z,12.20
2018-01-25T10:00:15.384Z,14.60
2018-01-25T10:02:42.223Z,13.77
2018-01-25T10:05:12.912Z,13.53
2018-01-25T10:07:39.737Z,14.97
2018-01-25T10:10:06.666Z,14.40
2018-01-25T10:12:33.540Z,14.63
2018-01-25T10:15:00.394Z,16.03
2018-01-25T10:17:27.163Z,14.10
2018-01-25T10:19:53.973Z,15.50
2018-01-25T10:22:20.792Z,13.73
2018-01-25T10:24:49.255Z,14.50
2018-01-25T10:27:17.269Z,14.57
2018-01-25T10:29:44.077Z,15.50
2018-01-25T10:32:10.867Z,15.00
2018-01-25T10:34:37.666Z,14.57
2018-01-25T10:37:04.423Z,14.33
2018-01-25T10:39:31.805Z,13.37
2018-01-25T10:41:58.585Z,13.90
2018-01-25T10:44:25.357Z,13.60
2018-01-25T10:46:52.147Z,15.30
2018-01-25T10:49:18.913Z,15.80
2018-01-25T10:51:46.634Z,14.20
2018-01-25T10:54:13.986Z,13.97
2018-01-25T10:56:40.865Z,14.70
2018-01-25T10:59:07.650Z,17.53
2018-01-25T11:01:40.305Z,17.17
2018-01-25T11:04:07.326Z,17.67
2018-01-25T11:06:34.098Z,17.87
2018-01-25T11:09:00.877Z,18.10
2018-01-25T11:11:27.682Z,17.43
2018-01-25T11:13:54.484Z,19.37
2018-01-25T11:16:21.362Z,19.03
2018-01-25T11:18:48.137Z,21.03
2018-01-25T11:21:14.912Z,19.07
2018-01-25T11:23:41.685Z,21.17
2018-01-25T11:26:13.645Z,19.73
2018-01-25T11:28:42.731Z,20.90
2018-01-25T11:31:09.501Z,21.87
2018-01-25T11:33:36.255Z,21.23
2018-01-25T11:36:03.072Z,20.97
2018-01-25T11:38:29.853Z,20.40
2018-01-25T11:40:56.633Z,19.60
2018-01-25T11:43:23.394Z,19.90
2018-01-25T11:45:52.371Z,20.67
2018-01-25T11:48:19.207Z,20.33
2018-01-25T11:50:46.288Z,19.33
2018-01-25T11:53:13.089Z,18.63
2018-01-25T11:55:39.877Z,19.23
2018-01-25T11:58:06.631Z,20.47
2018-01-25T12:00:33.471Z,21.13
2018-01-25T12:03:00.238Z,21.47
2018-01-25T12:05:26.993Z,20.57
2018-01-25T12:07:53.766Z,22.23
2018-01-25T12:10:20.539Z,19.77
2018-01-25T12:12:47.331Z,18.20
2018-01-25T12:15:14.203Z,19.97
2018-01-25T12:17:40.950Z,19.93
2018-01-25T12:20:07.714Z,17.73
2018-01-25T12:22:34.603Z,19.47
2018-01-25T12:25:01.409Z,19.10
2018-01-25T12:27:28.206Z,19.50
2018-01-25T12:29:55.117Z,20.27
2018-01-25T12:32:22.064Z,20.70
2018-01-25T12:34:56.117Z,21.63
2018-01-25T12:37:22.926Z,20.50
2018-01-25T12:39:49.717Z,22.17
2018-01-25T12:42:16.521Z,20.60
2018-01-25T12:44:43.282Z,19.27
2018-01-25T12:47:10.083Z,21.90
2018-01-25T12:49:36.883Z,20.77
2018-01-25T12:52:03.650Z,22.37
2018-01-25T12:54:30.468Z,20.43
2018-01-25T12:56:57.269Z,19.83
2018-01-25T12:59:24.027Z,22.40
2018-01-25T13:01:50.825Z,21.03
2018-01-25T13:04:17.598Z,21.57
2018-01-25T13:06:44.420Z,22.37
2018-01-25T13:09:11.193Z,21.17
2018-01-25T13:11:49.887Z,19.70
2018-01-25T13:14:17.546Z,19.37
2018-01-25T13:16:44.364Z,18.63
2018-01-25T13:19:11.137Z,20.00
2018-01-25T13:21:38.144Z,20.40
2018-01-25T13:24:04.920Z,20.30
2018-01-25T13:26:31.708Z,20.03
2018-01-25T13:28:58.501Z,20.80
2018-01-25T13:31:25.691Z,20.70
2018-01-25T13:33:52.518Z,20.93
2018-01-25T13:36:19.378Z,20.63
2018-01-25T13:38:46.135Z,22.00
2018-01-25T13:41:13.030Z,19.67
2018-01-25T13:43:39.806Z,20.57
2018-01-25T13:46:06.559Z,21.10
2018-01-25T13:48:38.243Z,20.80
2018-01-25T13:51:05.163Z,22.00
2018-01-25T13:53:32.202Z,21.83
2018-01-25T13:55:59.407Z,21.40
2018-01-25T13:58:26.375Z,20.97
2018-01-25T14:00:53.441Z,22.13
2018-01-25T14:03:20.415Z,22.20
2018-01-25T14:05:47.524Z,23.93
2018-01-25T14:08:14.687Z,22.67
2018-01-25T14:10:43.782Z,24.03
2018-01-25T14:13:10.630Z,23.03
2018-01-25T14:15:38.692Z,23.63
2018-01-25T14:18:05.502Z,20.77
2018-01-25T14:20:32.254Z,22.80
2018-01-25T14:22:59.091Z,21.27
2018-01-25T14:25:26.494Z,20.93
2018-01-25T14:27:53.379Z,20.67
2018-01-25T14:30:20.221Z,20.63
2018-01-25T14:32:47.086Z,20.93
2018-01-25T14:35:14.189Z,22.40
2018-01-25T14:37:40.990Z,21.90
2018-01-25T14:40:08.129Z,22.73
2018-01-25T14:42:35.077Z,22.33
2018-01-25T14:45:02.059Z,21.57
2018-01-25T14:47:28.861Z,21.13
2018-01-25T14:49:55.623Z,20.63
2018-01-25T14:52:22.462Z,20.50
2018-01-25T14:54:49.384Z,20.57
2018-01-25T14:57:16.246Z,21.27
2018-01-25T14:59:43.173Z,21.43
2018-01-25T15:02:10.106Z,21.57
2018-01-25T15:04:37.029Z,21.63
2018-01-25T15:07:03.916Z,21.00
2018-01-25T15:09:30.875Z,21.67
2018-01-25T15:11:57.992Z,26.60
2018-01-25T15:14:25.038Z,28.23
2018-01-25T15:16:52.007Z,20.60
2018-01-25T15:19:19.178Z,22.30
2018-01-25T15:21:46.093Z,22.87
2018-01-25T15:24:12.906Z,22.07
2018-01-25T15:26:45.626Z,22.47
2018-01-25T15:29:12.430Z,23.37
2018-01-25T15:31:39.278Z,22.90
2018-01-25T15:34:06.073Z,28.83
2018-01-25T15:36:32.835Z,28.90
2018-01-25T15:38:59.589Z,23.47
2018-01-25T15:41:26.401Z,24.73
2018-01-25T15:43:53.241Z,21.33
2018-01-25T15:46:19.985Z,21.83
2018-01-25T15:48:46.900Z,21.87
2018-01-25T15:51:13.679Z,22.90
2018-01-25T15:53:40.445Z,22.33
2018-01-25T15:56:07.197Z,23.93
2018-01-25T15:58:33.966Z,23.40
2018-01-25T16:01:01.037Z,23.33
2018-01-25T16:03:27.806Z,23.87
2018-01-25T16:05:54.981Z,23.20
2018-01-25T16:08:21.759Z,25.07
2018-01-25T16:10:48.513Z,24.63
2018-01-25T16:13:15.305Z,23.47
2018-01-25T16:15:42.079Z,22.93
2018-01-25T16:18:08.866Z,22.90
2018-01-25T16:20:35.654Z,22.07
2018-01-25T16:23:02.471Z,23.07
2018-01-25T16:25:29.237Z,22.97
2018-01-25T16:27:56.094Z,24.40
2018-01-25T16:30:22.909Z,23.17
2018-01-25T16:32:49.678Z,23.63
2018-01-25T16:35:16.680Z,24.17
2018-01-25T16:37:43.582Z,25.73
2018-01-25T16:40:10.411Z,30.43
2018-01-25T16:42:37.377Z,37.97
2018-01-25T16:45:04.279Z,28.20
2018-01-25T16:47:31.106Z,26.23
2018-01-25T16:49:58.109Z,23.47
2018-01-25T16:52:25.674Z,24.00
2018-01-25T16:54:53.127Z,23.03
2018-01-25T16:57:20.009Z,24.10
2018-01-25T16:59:47.101Z,23.07
2018-01-25T17:02:14.040Z,22.47
2018-01-25T17:04:40.812Z,21.57
2018-01-25T17:07:07.625Z,21.83
2018-01-25T17:09:35.159Z,22.77
2018-01-25T17:12:01.983Z,24.63
2018-01-25T17:14:28.844Z,22.07
2018-01-25T17:16:55.621Z,23.03
2018-01-25T17:19:22.494Z,21.83
2018-01-25T17:21:50.351Z,22.87
2018-01-25T17:24:17.693Z,23.43
2018-01-25T17:26:44.525Z,21.80
2018-01-25T17:29:12.634Z,24.40
2018-01-25T17:31:39.445Z,23.53
2018-01-25T17:34:06.213Z,23.23
2018-01-25T17:36:33.023Z,23.33
2018-01-25T17:38:59.802Z,23.50
2018-01-25T17:41:26.559Z,23.90
2018-01-25T17:43:53.320Z,22.47
2018-01-25T17:46:20.130Z,32.97
2018-01-25T17:48:47.233Z,29.17
2018-01-25T17:51:18.774Z,25.33
2018-01-25T17:53:45.749Z,24.83
2018-01-25T17:56:12.570Z,25.13
2018-01-25T17:58:39.334Z,24.77
2018-01-25T18:01:06.115Z,23.97
2018-01-25T18:03:32.891Z,21.30
2018-01-25T18:05:59.694Z,22.20
2018-01-25T18:08:26.471Z,21.63
2018-01-25T18:10:53.250Z,21.03
2018-01-25T18:13:20.014Z,20.83
2018-01-25T18:15:47.411Z,22.30
2018-01-25T18:18:14.177Z,22.17
2018-01-25T18:20:40.946Z,21.97
2018-01-25T18:23:07.706Z,21.07
2018-01-25T18:25:34.482Z,23.37
2018-01-25T18:28:01.453Z,20.53
2018-01-25T18:30:28.229Z,19.73
2018-01-25T18:32:54.983Z,18.30
2018-01-25T18:35:21.824Z,18.97
2018-01-25T18:37:48.646Z,21.47
2018-01-25T18:40:15.431Z,19.10
2018-01-25T18:42:42.187Z,18.93
2018-01-25T18:45:09.030Z,18.13
2018-01-25T18:47:35.874Z,19.20
2018-01-25T18:50:02.690Z,19.40
2018-01-25T18:52:29.465Z,17.60
2018-01-25T18:54:56.433Z,18.87
2018-01-25T18:57:23.213Z,18.93
2018-01-25T18:59:50.106Z,18.50
2018-01-25T19:02:16.873Z,16.53
2018-01-25T19:04:43.651Z,18.37
2018-01-25T19:07:10.615Z,18.60
2018-01-25T19:09:37.469Z,17.27
2018-01-25T19:12:04.402Z,16.47
2018-01-25T19:14:31.296Z,16.50
2018-01-25T19:16:58.489Z,15.93
2018-01-25T19:19:25.542Z,15.93
2018-01-25T19:21:53.803Z,16.13
2018-01-25T19:24:20.600Z,17.43
2018-01-25T19:26:47.390Z,16.90
2018-01-25T19:29:14.182Z,16.60
2018-01-25T19:31:40.981Z,15.57
2018-01-25T19:34:07.854Z,17.20
2018-01-25T19:36:34.661Z,18.40
2018-01-25T19:39:01.519Z,32.10
2018-01-25T19:41:30.171Z,27.43
2018-01-25T19:43:56.937Z,22.10
2018-01-25T19:46:23.796Z,19.00
2018-01-25T19:48:50.594Z,17.40
2018-01-25T19:51:17.363Z,16.67
2018-01-25T19:53:44.209Z,76.40
2018-01-25T19:59:06.657Z,19.57
2018-01-25T20:01:33.436Z,17.83
2018-01-25T20:04:00.970Z,18.57
2018-01-25T20:06:27.730Z,17.37
2018-01-25T20:08:54.529Z,17.37
2018-01-25T20:11:21.346Z,17.63
2018-01-25T20:13:48.236Z,17.20
2018-01-25T20:16:15.043Z,16.97
2018-01-25T20:18:41.842Z,17.93
2018-01-25T20:21:08.646Z,17.50
2018-01-25T20:23:35.785Z,17.57
2018-01-25T20:26:06.867Z,18.00
2018-01-25T20:28:33.815Z,17.20
2018-01-25T20:31:00.973Z,19.20
2018-01-25T20:33:27.992Z,18.13
2018-01-25T20:35:54.857Z,16.90
2018-01-25T20:38:21.619Z,16.37
2018-01-25T20:40:48.426Z,15.60
2018-01-25T20:43:16.911Z,17.37
2018-01-25T20:45:43.752Z,15.60
2018-01-25T20:48:10.522Z,15.63
2018-01-25T20:51:00.509Z,16.57
2018-01-25T20:53:49.806Z,14.93
2018-01-25T20:56:16.579Z,16.27
2018-01-25T20:58:43.331Z,17.07
2018-01-25T21:01:11.087Z,15.23
2018-01-25T21:03:39.140Z,16.00
2018-01-25T21:06:22.804Z,16.97
2018-01-25T21:08:49.742Z,15.03
2018-01-25T21:11:20.638Z,16.40
2018-01-25T21:13:47.387Z,13.63
2018-01-25T21:16:15.330Z,14.93
2018-01-25T21:18:52.355Z,14.87
2018-01-25T21:21:19.188Z,14.33
2018-01-25T21:23:45.976Z,14.77
2018-01-25T21:26:12.812Z,14.67
2018-01-25T21:28:40.802Z,15.73
2018-01-25T21:31:07.665Z,14.83
2018-01-25T21:33:35.478Z,16.50
2018-01-25T21:36:03.069Z,15.40
2018-01-25T21:38:29.980Z,16.97
2018-01-25T21:40:57.727Z,15.43
2018-01-25T21:43:24.509Z,16.57
2018-01-25T21:45:53.996Z,16.30
2018-01-25T21:48:20.778Z,17.27
2018-01-25T21:50:47.634Z,17.37
2018-01-25T21:53:15.332Z,18.20
2018-01-25T21:55:42.111Z,17.90
2018-01-25T21:58:09.577Z,18.50
2018-01-25T22:00:36.332Z,19.80
2018-01-25T22:03:03.180Z,19.33
2018-01-25T22:05:29.978Z,18.43
2018-01-25T22:07:56.731Z,18.10
2018-01-25T22:10:30.359Z,19.77
2018-01-25T22:12:57.265Z,19.77
2018-01-25T22:15:24.054Z,16.27
2018-01-25T22:17:50.864Z,17.13
2018-01-25T22:20:18.170Z,16.70
2018-01-25T22:22:44.963Z,16.97
2018-01-25T22:25:13.008Z,16.43
2018-01-25T22:27:42.631Z,16.63
2018-01-25T22:30:09.505Z,17.33
2018-01-25T22:32:36.609Z,15.00
2018-01-25T22:35:03.662Z,17.97
2018-01-25T22:37:30.782Z,17.27
2018-01-25T22:39:57.633Z,17.30
2018-01-25T22:42:28.042Z,17.50
2018-01-25T22:44:54.820Z,15.73
2018-01-25T22:47:21.604Z,16.73
2018-01-25T22:49:50.141Z,16.13
2018-01-25T22:52:16.884Z,15.23
2018-01-25T22:54:44.781Z,14.30
2018-01-25T22:57:12.509Z,16.27
2018-01-25T22:59:39.287Z,14.43
2018-01-25T23:02:06.081Z,13.53
2018-01-25T23:04:32.821Z,13.77
2018-01-25T23:06:59.988Z,15.07
2018-01-25T23:09:26.771Z,14.97
2018-01-25T23:11:53.573Z,14.40
2018-01-25T23:14:22.696Z,14.10
2018-01-25T23:16:52.710Z,13.87
2018-01-25T23:19:47.826Z,13.97
2018-01-25T23:22:15.968Z,15.10
2018-01-25T23:24:45.457Z,15.47
2018-01-25T23:27:33.187Z,15.37
2018-01-25T23:52:46.017Z,13.77
2018-01-25T23:55:13.102Z,15.47
2018-01-25T23:57:40.381Z,14.20
